AFL3500 UUEE-ULLI
Flight info
| Callsign | AFL3500 |
|---|---|
| Flight time | 0h 58m |
| Altitude | 34000 |
| Route | TOKNU3H TOKNU L4 NUDKO T561 ODATI T875 GENPA GENPA1V |
| Aircraft | A321/M-SDE3FGHIRWY/LB1 |
Departure
| Time | 2026-05-04 17:05 |
|---|---|
| Airport | Sheremetyevo International Airport (UUEE) |
Arrival
| Time | 2026-05-04 18:04 |
|---|---|
| Airport | Pulkovo Airport (ULLI) |
| Time | Latitude | Longitude | Altitude | Speed | Heading |
|---|---|---|---|---|---|
| 2026-05-04 16:06 | 55.97839 | 37.41633 | 639 ft | 0 kts | 75° |
| 2026-05-04 16:55 | 55.97836 | 37.41566 | 641 ft | 3 kts | 111° |
| 2026-05-04 16:55 | 55.97854 | 37.41530 | 646 ft | 0 kts | 165° |
| 2026-05-04 16:58 | 55.97853 | 37.41531 | 640 ft | 1 kts | 165° |
| 2026-05-04 16:59 | 55.97788 | 37.41562 | 641 ft | 9 kts | 165° |
| 2026-05-04 17:00 | 55.97739 | 37.42099 | 641 ft | 15 kts | 133° |
| 2026-05-04 17:00 | 55.97733 | 37.42509 | 640 ft | 12 kts | 75° |
| 2026-05-04 17:01 | 55.97746 | 37.42780 | 641 ft | 7 kts | 144° |
| 2026-05-04 17:01 | 55.97637 | 37.42843 | 642 ft | 10 kts | 164° |
| 2026-05-04 17:02 | 55.97590 | 37.42741 | 640 ft | 0 kts | 255° |
| 2026-05-04 17:04 | 55.97579 | 37.42668 | 642 ft | 29 kts | 255° |
| 2026-05-04 17:05 | 55.97246 | 37.40442 | 638 ft | 146 kts | 255° |
| 2026-05-04 17:05 | 55.96656 | 37.36453 | 1434 ft | 168 kts | 253° |
| 2026-05-04 17:06 | 55.95953 | 37.32295 | 2089 ft | 191 kts | 252° |
| 2026-05-04 17:06 | 55.95575 | 37.29930 | 2210 ft | 209 kts | 253° |
| 2026-05-04 17:07 | 55.94717 | 37.24427 | 2756 ft | 247 kts | 253° |
| 2026-05-04 17:07 | 55.94402 | 37.22412 | 3234 ft | 250 kts | 254° |
| 2026-05-04 17:07 | 55.93780 | 37.18444 | 4267 ft | 252 kts | 255° |
| 2026-05-04 17:07 | 55.93304 | 37.15419 | 5024 ft | 254 kts | 255° |
| 2026-05-04 17:08 | 55.92824 | 37.12384 | 5770 ft | 255 kts | 255° |
| 2026-05-04 17:08 | 55.91865 | 37.06240 | 7186 ft | 258 kts | 258° |
| 2026-05-04 17:08 | 55.91772 | 37.03085 | 7827 ft | 261 kts | 278° |
| 2026-05-04 17:09 | 55.92352 | 37.00018 | 8486 ft | 265 kts | 298° |
| 2026-05-04 17:09 | 55.93569 | 36.97475 | 9186 ft | 272 kts | 319° |
| 2026-05-04 17:09 | 55.95110 | 36.95538 | 9812 ft | 276 kts | 322° |
| 2026-05-04 17:10 | 55.98288 | 36.91619 | 9993 ft | 277 kts | 322° |
| 2026-05-04 17:10 | 56.03888 | 36.87570 | 10689 ft | 307 kts | 338° |
| 2026-05-04 17:11 | 56.05927 | 36.86351 | 11276 ft | 310 kts | 338° |
| 2026-05-04 17:11 | 56.07941 | 36.84945 | 11889 ft | 311 kts | 329° |
| 2026-05-04 17:11 | 56.11337 | 36.80209 | 13105 ft | 312 kts | 314° |
| 2026-05-04 17:12 | 56.12911 | 36.77557 | 13708 ft | 316 kts | 314° |
| 2026-05-04 17:12 | 56.16151 | 36.72118 | 14803 ft | 321 kts | 314° |
| 2026-05-04 17:13 | 56.21120 | 36.63808 | 15833 ft | 327 kts | 314° |
| 2026-05-04 17:14 | 56.26293 | 36.55094 | 16097 ft | 361 kts | 314° |
| 2026-05-04 17:14 | 56.28154 | 36.51937 | 16263 ft | 374 kts | 314° |
| 2026-05-04 17:14 | 56.31990 | 36.45420 | 17116 ft | 382 kts | 314° |
| 2026-05-04 17:15 | 56.33930 | 36.42115 | 17596 ft | 385 kts | 313° |
| 2026-05-04 17:15 | 56.37006 | 36.34274 | 18452 ft | 386 kts | 293° |
| 2026-05-04 17:16 | 56.38950 | 36.25247 | 19264 ft | 390 kts | 289° |
| 2026-05-04 17:16 | 56.41880 | 36.11401 | 20454 ft | 397 kts | 289° |
| 2026-05-04 17:17 | 56.42865 | 36.06724 | 20846 ft | 399 kts | 289° |
| 2026-05-04 17:17 | 56.46501 | 35.93085 | 22001 ft | 410 kts | 306° |
| 2026-05-04 17:18 | 56.48335 | 35.89099 | 22383 ft | 413 kts | 307° |
| 2026-05-04 17:18 | 56.52041 | 35.81069 | 23135 ft | 418 kts | 307° |
| 2026-05-04 17:19 | 56.55751 | 35.72980 | 23827 ft | 421 kts | 307° |
| 2026-05-04 17:19 | 56.59506 | 35.64748 | 24472 ft | 424 kts | 307° |
| 2026-05-04 17:20 | 56.63280 | 35.56460 | 25087 ft | 428 kts | 307° |
| 2026-05-04 17:20 | 56.67087 | 35.48101 | 25690 ft | 431 kts | 307° |
| 2026-05-04 17:20 | 56.68999 | 35.43888 | 25976 ft | 432 kts | 307° |
| 2026-05-04 17:21 | 56.72811 | 35.35463 | 26564 ft | 435 kts | 307° |
| 2026-05-04 17:21 | 56.76670 | 35.26911 | 27141 ft | 438 kts | 307° |
| 2026-05-04 17:22 | 56.78609 | 35.22604 | 27424 ft | 440 kts | 306° |
| 2026-05-04 17:22 | 56.80552 | 35.18271 | 27706 ft | 441 kts | 306° |
| 2026-05-04 17:23 | 56.86385 | 35.05211 | 28695 ft | 441 kts | 306° |
| 2026-05-04 17:23 | 56.88322 | 35.00873 | 29065 ft | 440 kts | 306° |
| 2026-05-04 17:23 | 56.92585 | 34.92954 | 29780 ft | 443 kts | 320° |
| 2026-05-04 17:24 | 56.95149 | 34.89783 | 30074 ft | 445 kts | 323° |
| 2026-05-04 17:24 | 57.02902 | 34.80524 | 31037 ft | 441 kts | 323° |
| 2026-05-04 17:25 | 57.05466 | 34.77436 | 31354 ft | 440 kts | 323° |
| 2026-05-04 17:25 | 57.10576 | 34.71288 | 31971 ft | 438 kts | 323° |
| 2026-05-04 17:26 | 57.15671 | 34.65145 | 32583 ft | 436 kts | 323° |
| 2026-05-04 17:26 | 57.23228 | 34.55995 | 33529 ft | 433 kts | 322° |
| 2026-05-04 17:27 | 57.28269 | 34.49864 | 33791 ft | 431 kts | 322° |
| 2026-05-04 17:28 | 57.38211 | 34.37697 | 33786 ft | 429 kts | 322° |
| 2026-05-04 17:29 | 57.53137 | 34.19279 | 33789 ft | 429 kts | 322° |
| 2026-05-04 17:31 | 57.65520 | 34.03867 | 33763 ft | 428 kts | 321° |
| 2026-05-04 17:32 | 57.77870 | 33.88347 | 33743 ft | 429 kts | 321° |
| 2026-05-04 17:33 | 57.87765 | 33.75787 | 33728 ft | 428 kts | 319° |
| 2026-05-04 17:34 | 57.96987 | 33.61837 | 33747 ft | 426 kts | 314° |
| 2026-05-04 17:35 | 58.08481 | 33.44119 | 33727 ft | 427 kts | 315° |
| 2026-05-04 17:36 | 58.13099 | 33.37046 | 33724 ft | 427 kts | 315° |
| 2026-05-04 17:36 | 58.16931 | 33.31135 | 33714 ft | 427 kts | 315° |
| 2026-05-04 17:37 | 58.22271 | 33.22844 | 33729 ft | 427 kts | 314° |
| 2026-05-04 17:37 | 58.26118 | 33.16859 | 33712 ft | 427 kts | 314° |
| 2026-05-04 17:38 | 58.30692 | 33.09745 | 33707 ft | 427 kts | 314° |
| 2026-05-04 17:38 | 58.35279 | 33.02584 | 33694 ft | 427 kts | 314° |
| 2026-05-04 17:39 | 58.42226 | 32.91676 | 31750 ft | 440 kts | 314° |
| 2026-05-04 17:39 | 58.44593 | 32.87944 | 30939 ft | 442 kts | 314° |
| 2026-05-04 17:39 | 58.46974 | 32.84194 | 30069 ft | 446 kts | 314° |
| 2026-05-04 17:40 | 58.49381 | 32.80393 | 29004 ft | 451 kts | 314° |
| 2026-05-04 17:40 | 58.51776 | 32.76603 | 28053 ft | 453 kts | 314° |
| 2026-05-04 17:40 | 58.54198 | 32.72765 | 27438 ft | 448 kts | 315° |
| 2026-05-04 17:40 | 58.56588 | 32.68984 | 26813 ft | 444 kts | 315° |
| 2026-05-04 17:41 | 58.58952 | 32.65229 | 26197 ft | 440 kts | 315° |
| 2026-05-04 17:41 | 58.61294 | 32.61500 | 25588 ft | 436 kts | 315° |
| 2026-05-04 17:41 | 58.63614 | 32.57798 | 24989 ft | 431 kts | 315° |
| 2026-05-04 17:41 | 58.65908 | 32.54121 | 24391 ft | 428 kts | 315° |
| 2026-05-04 17:42 | 58.68183 | 32.50465 | 23813 ft | 424 kts | 314° |
| 2026-05-04 17:42 | 58.70442 | 32.46836 | 23228 ft | 421 kts | 314° |
| 2026-05-04 17:42 | 58.72653 | 32.43280 | 22600 ft | 416 kts | 314° |
| 2026-05-04 17:42 | 58.74858 | 32.39732 | 22070 ft | 410 kts | 314° |
| 2026-05-04 17:43 | 58.77039 | 32.36223 | 21539 ft | 404 kts | 314° |
| 2026-05-04 17:43 | 58.79177 | 32.32770 | 21035 ft | 398 kts | 314° |
| 2026-05-04 17:43 | 58.81283 | 32.29360 | 20538 ft | 392 kts | 314° |
| 2026-05-04 17:43 | 58.83359 | 32.25997 | 20075 ft | 386 kts | 314° |
| 2026-05-04 17:44 | 58.85401 | 32.22677 | 19613 ft | 381 kts | 313° |
| 2026-05-04 17:44 | 58.87408 | 32.19401 | 19177 ft | 375 kts | 313° |
| 2026-05-04 17:44 | 58.89388 | 32.16163 | 18746 ft | 370 kts | 313° |
| 2026-05-04 17:44 | 58.91342 | 32.12968 | 18326 ft | 365 kts | 313° |
| 2026-05-04 17:45 | 58.93271 | 32.09809 | 17908 ft | 361 kts | 313° |
| 2026-05-04 17:45 | 58.95175 | 32.06689 | 17465 ft | 357 kts | 312° |
| 2026-05-04 17:45 | 58.97057 | 32.03601 | 17038 ft | 352 kts | 312° |
| 2026-05-04 17:45 | 58.98897 | 32.00581 | 16641 ft | 350 kts | 312° |
| 2026-05-04 17:46 | 59.00751 | 31.97532 | 16212 ft | 348 kts | 312° |
| 2026-05-04 17:46 | 59.02588 | 31.94500 | 15810 ft | 345 kts | 311° |
| 2026-05-04 17:46 | 59.04409 | 31.91485 | 15374 ft | 343 kts | 311° |
| 2026-05-04 17:46 | 59.06218 | 31.88485 | 14943 ft | 341 kts | 311° |
| 2026-05-04 17:47 | 59.08011 | 31.85510 | 14573 ft | 339 kts | 311° |
| 2026-05-04 17:47 | 59.09809 | 31.82523 | 14073 ft | 339 kts | 311° |
| 2026-05-04 17:47 | 59.11570 | 31.79526 | 13633 ft | 334 kts | 309° |
| 2026-05-04 17:47 | 59.13257 | 31.76437 | 13134 ft | 331 kts | 308° |
| 2026-05-04 17:48 | 59.14893 | 31.73318 | 12679 ft | 327 kts | 307° |
| 2026-05-04 17:48 | 59.16503 | 31.70205 | 12234 ft | 324 kts | 307° |
| 2026-05-04 17:48 | 59.18096 | 31.67121 | 11821 ft | 322 kts | 307° |
| 2026-05-04 17:48 | 59.19686 | 31.64054 | 11332 ft | 321 kts | 307° |
| 2026-05-04 17:49 | 59.21278 | 31.60999 | 10864 ft | 319 kts | 307° |
| 2026-05-04 17:49 | 59.22860 | 31.57967 | 10478 ft | 316 kts | 307° |
| 2026-05-04 17:49 | 59.24402 | 31.55034 | 10354 ft | 304 kts | 307° |
| 2026-05-04 17:49 | 59.25888 | 31.52218 | 10229 ft | 292 kts | 306° |
| 2026-05-04 17:50 | 59.27300 | 31.49538 | 10111 ft | 281 kts | 306° |
| 2026-05-04 17:50 | 59.28677 | 31.46914 | 9884 ft | 273 kts | 305° |
| 2026-05-04 17:50 | 59.30025 | 31.44325 | 9661 ft | 269 kts | 307° |
| 2026-05-04 17:50 | 59.31347 | 31.41772 | 9511 ft | 266 kts | 306° |
| 2026-05-04 17:51 | 59.32662 | 31.39221 | 9368 ft | 266 kts | 306° |
| 2026-05-04 17:51 | 59.33976 | 31.36678 | 9235 ft | 265 kts | 306° |
| 2026-05-04 17:51 | 59.35292 | 31.34137 | 8999 ft | 265 kts | 306° |
| 2026-05-04 17:51 | 59.36603 | 31.31608 | 8664 ft | 263 kts | 306° |
| 2026-05-04 17:52 | 59.37905 | 31.29094 | 8320 ft | 262 kts | 306° |
| 2026-05-04 17:52 | 59.39184 | 31.26617 | 7988 ft | 261 kts | 306° |
| 2026-05-04 17:52 | 59.40474 | 31.24114 | 7650 ft | 259 kts | 306° |
| 2026-05-04 17:52 | 59.41755 | 31.21624 | 7314 ft | 258 kts | 307° |
| 2026-05-04 17:53 | 59.43022 | 31.19163 | 7037 ft | 254 kts | 307° |
| 2026-05-04 17:53 | 59.44281 | 31.16715 | 6900 ft | 256 kts | 307° |
| 2026-05-04 17:53 | 59.45548 | 31.14245 | 6629 ft | 255 kts | 307° |
| 2026-05-04 17:53 | 59.46804 | 31.11795 | 6307 ft | 254 kts | 307° |
| 2026-05-04 17:54 | 59.48050 | 31.09356 | 5979 ft | 252 kts | 307° |
| 2026-05-04 17:54 | 59.49275 | 31.06962 | 5649 ft | 251 kts | 307° |
| 2026-05-04 17:54 | 59.50515 | 31.04549 | 5298 ft | 250 kts | 307° |
| 2026-05-04 17:54 | 59.51746 | 31.02145 | 4968 ft | 248 kts | 306° |
| 2026-05-04 17:55 | 59.52906 | 30.99667 | 4859 ft | 245 kts | 304° |
| 2026-05-04 17:55 | 59.54024 | 30.97125 | 4754 ft | 245 kts | 303° |
| 2026-05-04 17:55 | 59.55125 | 30.94568 | 4643 ft | 245 kts | 303° |
| 2026-05-04 17:55 | 59.56224 | 30.92003 | 4540 ft | 245 kts | 303° |
| 2026-05-04 17:56 | 59.57323 | 30.89446 | 4421 ft | 244 kts | 303° |
| 2026-05-04 17:56 | 59.58423 | 30.86895 | 4309 ft | 244 kts | 303° |
| 2026-05-04 17:56 | 59.59530 | 30.84337 | 4192 ft | 245 kts | 303° |
| 2026-05-04 17:56 | 59.60639 | 30.81774 | 4084 ft | 246 kts | 303° |
| 2026-05-04 17:57 | 59.61737 | 30.79236 | 3965 ft | 246 kts | 303° |
| 2026-05-04 17:57 | 59.62848 | 30.76668 | 3864 ft | 245 kts | 303° |
| 2026-05-04 17:57 | 59.63959 | 30.74103 | 3746 ft | 244 kts | 303° |
| 2026-05-04 17:57 | 59.65063 | 30.71554 | 3634 ft | 244 kts | 303° |
| 2026-05-04 17:58 | 59.66165 | 30.69011 | 3533 ft | 243 kts | 304° |
| 2026-05-04 17:58 | 59.67454 | 30.66746 | 3277 ft | 254 kts | 316° |
| 2026-05-04 17:58 | 59.68912 | 30.64695 | 2864 ft | 254 kts | 316° |
| 2026-05-04 17:58 | 59.70325 | 30.62752 | 2794 ft | 240 kts | 316° |
| 2026-05-04 17:59 | 59.71649 | 30.60942 | 2738 ft | 227 kts | 316° |
| 2026-05-04 17:59 | 59.72907 | 30.59223 | 2618 ft | 214 kts | 316° |
| 2026-05-04 17:59 | 59.74831 | 30.55729 | 2467 ft | 159 kts | 290° |
| 2026-05-04 18:00 | 59.75192 | 30.53793 | 2343 ft | 146 kts | 280° |
| 2026-05-04 18:00 | 59.75482 | 30.51883 | 2243 ft | 144 kts | 279° |
| 2026-05-04 18:00 | 59.75770 | 30.49983 | 2169 ft | 143 kts | 279° |
| 2026-05-04 18:00 | 59.76059 | 30.48074 | 2074 ft | 144 kts | 279° |
| 2026-05-04 18:01 | 59.76346 | 30.46174 | 1904 ft | 143 kts | 279° |
| 2026-05-04 18:01 | 59.76631 | 30.44284 | 1759 ft | 143 kts | 279° |
| 2026-05-04 18:01 | 59.76916 | 30.42393 | 1576 ft | 143 kts | 280° |
| 2026-05-04 18:02 | 59.77479 | 30.38647 | 1186 ft | 145 kts | 282° |
| 2026-05-04 18:02 | 59.77765 | 30.36747 | 993 ft | 144 kts | 284° |
| 2026-05-04 18:02 | 59.78046 | 30.34847 | 788 ft | 142 kts | 287° |
| 2026-05-04 18:02 | 59.78333 | 30.32939 | 617 ft | 145 kts | 287° |
| 2026-05-04 18:03 | 59.78620 | 30.31019 | 399 ft | 145 kts | 287° |
| 2026-05-04 18:03 | 59.78903 | 30.29098 | 225 ft | 144 kts | 288° |
| 2026-05-04 18:03 | 59.79181 | 30.27253 | 93 ft | 134 kts | 289° |
| 2026-05-04 18:03 | 59.79408 | 30.25780 | 87 ft | 84 kts | 286° |
| 2026-05-04 18:04 | 59.79544 | 30.24856 | 89 ft | 64 kts | 286° |
| 2026-05-04 18:04 | 59.79657 | 30.24080 | 88 ft | 40 kts | 286° |
| 2026-05-04 18:04 | 59.79807 | 30.23270 | 85 ft | 25 kts | 306° |
| 2026-05-04 18:05 | 59.79889 | 30.23086 | 84 ft | 12 kts | 314° |
| 2026-05-04 18:05 | 59.79912 | 30.23046 | 84 ft | 0 kts | 326° |
| 2026-05-04 18:05 | 59.79913 | 30.23045 | 83 ft | 0 kts | 326° |
| 2026-05-04 18:05 | 59.79916 | 30.23041 | 82 ft | 1 kts | 326° |
| 2026-05-04 18:06 | 59.79939 | 30.23026 | 82 ft | 3 kts | 360° |
| 2026-05-04 18:06 | 59.79963 | 30.23050 | 70 ft | 5 kts | 42° |
| 2026-05-04 18:06 | 59.79974 | 30.23111 | 79 ft | 6 kts | 85° |
| 2026-05-04 18:07 | 59.79963 | 30.23214 | 82 ft | 9 kts | 105° |
| 2026-05-04 18:07 | 59.79944 | 30.23334 | 83 ft | 9 kts | 107° |
| 2026-05-04 18:07 | 59.79927 | 30.23455 | 86 ft | 9 kts | 106° |
| 2026-05-04 18:07 | 59.79909 | 30.23579 | 83 ft | 9 kts | 106° |
| 2026-05-04 18:08 | 59.79890 | 30.23703 | 82 ft | 9 kts | 107° |
| 2026-05-04 18:08 | 59.79875 | 30.23806 | 81 ft | 8 kts | 107° |
| 2026-05-04 18:08 | 59.79859 | 30.23908 | 82 ft | 8 kts | 105° |
| 2026-05-04 18:08 | 59.79844 | 30.24014 | 82 ft | 8 kts | 107° |
| 2026-05-04 18:09 | 59.79807 | 30.24263 | 85 ft | 13 kts | 106° |
| 2026-05-04 18:09 | 59.79738 | 30.24726 | 86 ft | 22 kts | 107° |
| 2026-05-04 18:10 | 59.79694 | 30.25023 | 86 ft | 23 kts | 106° |
| 2026-05-04 18:10 | 59.79647 | 30.25343 | 85 ft | 25 kts | 106° |
| 2026-05-04 18:10 | 59.79601 | 30.25650 | 85 ft | 18 kts | 107° |
| 2026-05-04 18:10 | 59.79564 | 30.25897 | 86 ft | 20 kts | 105° |
| 2026-05-04 18:11 | 59.79525 | 30.26164 | 91 ft | 21 kts | 107° |
| 2026-05-04 18:11 | 59.79506 | 30.26315 | 86 ft | 9 kts | 83° |
| 2026-05-04 18:11 | 59.79563 | 30.26388 | 87 ft | 12 kts | 17° |
| 2026-05-04 18:11 | 59.79644 | 30.26436 | 84 ft | 10 kts | 17° |
| 2026-05-04 18:12 | 59.79701 | 30.26481 | 87 ft | 7 kts | 50° |
| 2026-05-04 18:12 | 59.79706 | 30.26571 | 84 ft | 6 kts | 93° |
| 2026-05-04 18:12 | 59.79703 | 30.26642 | 84 ft | 4 kts | 95° |
| 2026-05-04 18:12 | 59.79703 | 30.26649 | 84 ft | 0 kts | 95° |